ENOV/HOV METAR and TAF weather

Enter ICAO airport designator
Station Type Date Time Source
ENOV METAR 2019/10/16 18:50 UTC NOAA

ENOV 161850Z 00000KT 9999 FEW045 BKN058 08/07 Q1004 RMK WIND 2175FT 13010KT


Station Type Date Time Source
ENOV Decoded METAR 2019/10/16 18:50 UTC NOAA

Orsta-Volda / Hovden, Norway (ENOV) 62-11N 006-04E 74M
Oct 16, 2019 - 02:50 PM EDT / 2019.10.16 1850 UTC
Wind: Calm:0
Visibility: greater than 7 mile(s):0
Sky conditions: mostly cloudy
Temperature: 46 F (8 C)
Dew Point: 44 F (7 C)
Relative Humidity: 93%
Pressure (altimeter): 29.65 in. Hg (1004 hPa)
ob: ENOV 161850Z 00000KT 9999 FEW045 BKN058 08/07 Q1004 RMK WIND 2175FT 13010KT
cycle: 19

Station Type Date Time Source
ENOV TAF UTC NOAA

Error!

Example: see airport list